sensor_id;sensor_type;location;lat;lon;timestamp;pressure;altitude;pressure_sealevel;temperature;humidity
48517;BME280;34310;51.904;4.256;2023-05-12T00:02:03;101843.13;;;19.06;61.71
48517;BME280;34310;51.904;4.256;2023-05-12T00:04:31;101845.75;;;19.06;61.84
48517;BME280;34310;51.904;4.256;2023-05-12T00:06:58;101838.72;;;19.05;61.77
48517;BME280;34310;51.904;4.256;2023-05-12T00:09:25;101840.44;;;19.04;61.78
48517;BME280;34310;51.904;4.256;2023-05-12T00:11:53;101843.06;;;19.04;61.78
48517;BME280;34310;51.904;4.256;2023-05-12T00:14:21;101843.88;;;19.03;61.73
48517;BME280;34310;51.904;4.256;2023-05-12T00:16:48;101846.50;;;19.03;61.80
48517;BME280;34310;51.904;4.256;2023-05-12T00:19:18;101841.19;;;19.02;61.86
48517;BME280;34310;51.904;4.256;2023-05-12T00:21:46;101838.56;;;19.02;61.80
48517;BME280;34310;51.904;4.256;2023-05-12T00:24:14;101846.41;;;19.02;61.83
48517;BME280;34310;51.904;4.256;2023-05-12T00:26:41;101845.53;;;19.01;61.92
48517;BME280;34310;51.904;4.256;2023-05-12T00:29:09;101841.09;;;19.00;61.75
48517;BME280;34310;51.904;4.256;2023-05-12T00:31:36;101839.38;;;19.01;61.75
48517;BME280;34310;51.904;4.256;2023-05-12T00:34:03;101843.72;;;19.00;61.76
48517;BME280;34310;51.904;4.256;2023-05-12T00:36:31;101847.16;;;18.99;61.75
48517;BME280;34310;51.904;4.256;2023-05-12T00:38:58;101843.66;;;18.99;61.86
48517;BME280;34310;51.904;4.256;2023-05-12T00:41:25;101845.34;;;18.98;61.82
48517;BME280;34310;51.904;4.256;2023-05-12T00:43:53;101847.97;;;18.98;61.78
48517;BME280;34310;51.904;4.256;2023-05-12T00:46:20;101839.22;;;18.98;61.79
48517;BME280;34310;51.904;4.256;2023-05-12T00:48:48;101844.38;;;18.96;61.64
48517;BME280;34310;51.904;4.256;2023-05-12T00:51:16;101843.56;;;18.97;61.77
48517;BME280;34310;51.904;4.256;2023-05-12T00:53:43;101842.59;;;18.95;61.83
48517;BME280;34310;51.904;4.256;2023-05-12T00:56:20;101839.16;;;18.96;61.83
48517;BME280;34310;51.904;4.256;2023-05-12T00:58:47;101841.75;;;18.96;61.73
48517;BME280;34310;51.904;4.256;2023-05-12T01:01:15;101839.88;;;18.94;61.73
48517;BME280;34310;51.904;4.256;2023-05-12T01:03:43;101838.16;;;18.94;61.88
48517;BME280;34310;51.904;4.256;2023-05-12T01:06:34;101846.03;;;18.94;61.88
48517;BME280;34310;51.904;4.256;2023-05-12T01:09:04;101836.38;;;18.93;61.68
48517;BME280;34310;51.904;4.256;2023-05-12T01:11:31;101839.00;;;18.93;61.63
48517;BME280;34310;51.904;4.256;2023-05-12T01:13:59;101833.69;;;18.92;61.84
48517;BME280;34310;51.904;4.256;2023-05-12T01:16:30;101833.69;;;18.92;61.75
48517;BME280;34310;51.904;4.256;2023-05-12T01:19:06;101836.28;;;18.92;61.74
48517;BME280;34310;51.904;4.256;2023-05-12T01:21:36;101836.22;;;18.90;61.72
48517;BME280;34310;51.904;4.256;2023-05-12T01:24:07;101830.09;;;18.90;61.94
48517;BME280;34310;51.904;4.256;2023-05-12T01:26:35;101830.97;;;18.90;61.79
48517;BME280;34310;51.904;4.256;2023-05-12T01:29:03;101833.53;;;18.88;61.58
48517;BME280;34310;51.904;4.256;2023-05-12T01:31:31;101832.63;;;18.88;61.71
48517;BME280;34310;51.904;4.256;2023-05-12T01:33:59;101833.44;;;18.87;61.70
48517;BME280;34310;51.904;4.256;2023-05-12T01:36:26;101829.09;;;18.87;61.93
48517;BME280;34310;51.904;4.256;2023-05-12T01:38:54;101834.34;;;18.87;61.84
48517;BME280;34310;51.904;4.256;2023-05-12T01:41:22;101834.34;;;18.87;61.69
48517;BME280;34310;51.904;4.256;2023-05-12T01:43:49;101835.97;;;18.85;61.70
48517;BME280;34310;51.904;4.256;2023-05-12T01:46:16;101832.47;;;18.85;61.69
48517;BME280;34310;51.904;4.256;2023-05-12T01:48:44;101832.47;;;18.85;61.97
48517;BME280;34310;51.904;4.256;2023-05-12T01:51:11;101840.31;;;18.85;61.66
48517;BME280;34310;51.904;4.256;2023-05-12T01:53:38;101836.78;;;18.84;61.76
48517;BME280;34310;51.904;4.256;2023-05-12T01:56:06;101835.91;;;18.84;61.96
48517;BME280;34310;51.904;4.256;2023-05-12T01:58:33;101839.34;;;18.83;61.66
48517;BME280;34310;51.904;4.256;2023-05-12T02:01:00;101837.53;;;18.82;61.68
48517;BME280;34310;51.904;4.256;2023-05-12T02:03:28;101841.94;;;18.83;61.67
48517;BME280;34310;51.904;4.256;2023-05-12T02:05:55;101845.38;;;18.82;61.75
48517;BME280;34310;51.904;4.256;2023-05-12T02:08:22;101841.88;;;18.81;61.77
48517;BME280;34310;51.904;4.256;2023-05-12T02:10:50;101835.75;;;18.81;61.94
48517;BME280;34310;51.904;4.256;2023-05-12T02:13:29;101834.84;;;18.80;61.78
48517;BME280;34310;51.904;4.256;2023-05-12T02:15:56;101844.41;;;18.80;61.71
48517;BME280;34310;51.904;4.256;2023-05-12T02:18:24;101832.09;;;18.79;61.89
48517;BME280;34310;51.904;4.256;2023-05-12T02:20:51;101841.78;;;18.80;61.70
48517;BME280;34310;51.904;4.256;2023-05-12T02:23:19;101830.44;;;18.79;61.91
48517;BME280;34310;51.904;4.256;2023-05-12T02:25:46;101831.22;;;18.78;61.81
48517;BME280;34310;51.904;4.256;2023-05-12T02:28:13;101827.69;;;18.78;61.87
48517;BME280;34310;51.904;4.256;2023-05-12T02:30:48;101822.47;;;18.78;61.84
48517;BME280;34310;51.904;4.256;2023-05-12T02:33:17;101823.28;;;18.77;61.86
48517;BME280;34310;51.904;4.256;2023-05-12T02:35:44;101826.78;;;18.77;61.65
48517;BME280;34310;51.904;4.256;2023-05-12T02:38:12;101811.03;;;18.76;61.95
48517;BME280;34310;51.904;4.256;2023-05-12T02:40:39;101811.03;;;18.76;61.75
48517;BME280;34310;51.904;4.256;2023-05-12T02:43:07;101814.47;;;18.75;61.69
48517;BME280;34310;51.904;4.256;2023-05-12T02:45:34;101814.47;;;18.75;61.89
48517;BME280;34310;51.904;4.256;2023-05-12T02:48:02;101809.22;;;18.75;61.78
48517;BME280;34310;51.904;4.256;2023-05-12T02:50:29;101809.13;;;18.73;61.77
48517;BME280;34310;51.904;4.256;2023-05-12T02:52:56;101809.97;;;18.72;61.65
48517;BME280;34310;51.904;4.256;2023-05-12T02:55:24;101803.91;;;18.73;61.94
48517;BME280;34310;51.904;4.256;2023-05-12T02:57:51;101804.72;;;18.72;61.67
48517;BME280;34310;51.904;4.256;2023-05-12T03:00:19;101812.56;;;18.72;61.68
48517;BME280;34310;51.904;4.256;2023-05-12T03:02:46;101808.16;;;18.71;61.92
48517;BME280;34310;51.904;4.256;2023-05-12T03:05:14;101806.44;;;18.72;61.92
48517;BME280;34310;51.904;4.256;2023-05-12T03:07:41;101801.13;;;18.70;61.75
48517;BME280;34310;51.904;4.256;2023-05-12T03:10:09;101797.69;;;18.71;61.76
48517;BME280;34310;51.904;4.256;2023-05-12T03:12:36;101794.09;;;18.69;61.90
48517;BME280;34310;51.904;4.256;2023-05-12T03:15:04;101793.28;;;18.70;61.92
48517;BME280;34310;51.904;4.256;2023-05-12T03:17:31;101800.25;;;18.70;62.04
48517;BME280;34310;51.904;4.256;2023-05-12T03:19:59;101787.97;;;18.69;61.96
48517;BME280;34310;51.904;4.256;2023-05-12T03:22:26;101788.88;;;18.69;61.89
48517;BME280;34310;51.904;4.256;2023-05-12T03:24:53;101782.75;;;18.69;61.67
48517;BME280;34310;51.904;4.256;2023-05-12T03:27:21;101788.78;;;18.68;61.85
48517;BME280;34310;51.904;4.256;2023-05-12T03:29:48;101780.06;;;18.67;61.78
48517;BME280;34310;51.904;4.256;2023-05-12T03:32:15;101780.06;;;18.67;61.89
48517;BME280;34310;51.904;4.256;2023-05-12T03:34:43;101781.78;;;18.67;61.91
48517;BME280;34310;51.904;4.256;2023-05-12T03:37:10;101775.63;;;18.66;61.92
48517;BME280;34310;51.904;4.256;2023-05-12T03:39:37;101778.16;;;18.65;61.79
48517;BME280;34310;51.904;4.256;2023-05-12T03:42:05;101780.88;;;18.66;61.89
48517;BME280;34310;51.904;4.256;2023-05-12T03:44:32;101777.28;;;18.64;61.84
48517;BME280;34310;51.904;4.256;2023-05-12T03:46:59;101771.16;;;18.64;61.84
48517;BME280;34310;51.904;4.256;2023-05-12T03:49:27;101771.16;;;18.64;61.96
48517;BME280;34310;51.904;4.256;2023-05-12T03:51:55;101769.34;;;18.63;61.93
48517;BME280;34310;51.904;4.256;2023-05-12T03:54:22;101774.56;;;18.63;62.00
48517;BME280;34310;51.904;4.256;2023-05-12T03:56:50;101771.97;;;18.63;61.64
48517;BME280;34310;51.904;4.256;2023-05-12T03:59:18;101769.34;;;18.63;61.79
48517;BME280;34310;51.904;4.256;2023-05-12T04:01:45;101762.28;;;18.62;61.86
48517;BME280;34310;51.904;4.256;2023-05-12T04:04:12;101770.13;;;18.62;61.81
48517;BME280;34310;51.904;4.256;2023-05-12T04:06:40;101764.91;;;18.62;61.94
48517;BME280;34310;51.904;4.256;2023-05-12T04:09:07;101761.31;;;18.60;62.03
48517;BME280;34310;51.904;4.256;2023-05-12T04:11:34;101750.84;;;18.60;61.92
48517;BME280;34310;51.904;4.256;2023-05-12T04:14:02;101761.31;;;18.60;62.03
48517;BME280;34310;51.904;4.256;2023-05-12T04:16:30;101762.13;;;18.58;61.95
48517;BME280;34310;51.904;4.256;2023-05-12T04:18:57;101763.84;;;18.58;61.86
48517;BME280;34310;51.904;4.256;2023-05-12T04:21:25;101764.75;;;18.58;61.89
48517;BME280;34310;51.904;4.256;2023-05-12T04:23:52;101757.72;;;18.57;61.83
48517;BME280;34310;51.904;4.256;2023-05-12T04:26:19;101767.28;;;18.57;62.15
48517;BME280;34310;51.904;4.256;2023-05-12T04:28:48;101758.53;;;18.56;61.90
48517;BME280;34310;51.904;4.256;2023-05-12T04:31:15;101760.34;;;18.57;61.99
48517;BME280;34310;51.904;4.256;2023-05-12T04:33:42;101760.25;;;18.56;61.96
48517;BME280;34310;51.904;4.256;2023-05-12T04:36:12;101755.84;;;18.55;62.12
48517;BME280;34310;51.904;4.256;2023-05-12T04:38:39;101763.69;;;18.55;62.02
48517;BME280;34310;51.904;4.256;2023-05-12T04:41:08;101758.38;;;18.53;62.01
48517;BME280;34310;51.904;4.256;2023-05-12T04:43:35;101757.47;;;18.53;61.94
48517;BME280;34310;51.904;4.256;2023-05-12T04:46:05;101763.59;;;18.53;61.75
48517;BME280;34310;51.904;4.256;2023-05-12T04:48:33;101761.00;;;18.53;62.14
48517;BME280;34310;51.904;4.256;2023-05-12T04:51:00;101753.06;;;18.52;61.94
48517;BME280;34310;51.904;4.256;2023-05-12T04:53:27;101755.69;;;18.52;62.03
48517;BME280;34310;51.904;4.256;2023-05-12T04:55:55;101760.00;;;18.51;62.05
48517;BME280;34310;51.904;4.256;2023-05-12T04:58:22;101759.13;;;18.51;61.97
48517;BME280;34310;51.904;4.256;2023-05-12T05:00:50;101758.22;;;18.50;61.84
48517;BME280;34310;51.904;4.256;2023-05-12T05:03:17;101773.91;;;18.50;62.09
48517;BME280;34310;51.904;4.256;2023-05-12T05:05:45;101769.47;;;18.49;61.75
48517;BME280;34310;51.904;4.256;2023-05-12T05:08:12;101768.56;;;18.49;62.10
48517;BME280;34310;51.904;4.256;2023-05-12T05:10:39;101766.84;;;18.49;61.94
48517;BME280;34310;51.904;4.256;2023-05-12T05:13:06;101773.78;;;18.49;62.05
48517;BME280;34310;51.904;4.256;2023-05-12T05:15:34;101770.28;;;18.48;61.99
48517;BME280;34310;51.904;4.256;2023-05-12T05:18:01;101778.94;;;18.47;61.86
48517;BME280;34310;51.904;4.256;2023-05-12T05:20:29;101778.13;;;18.48;62.06
48517;BME280;34310;51.904;4.256;2023-05-12T05:22:59;101780.66;;;18.47;62.03
48517;BME280;34310;51.904;4.256;2023-05-12T05:25:26;101782.38;;;18.46;62.02
48517;BME280;34310;51.904;4.256;2023-05-12T05:27:54;101779.75;;;18.46;62.08
48517;BME280;34310;51.904;4.256;2023-05-12T05:30:21;101780.56;;;18.45;62.06
48517;BME280;34310;51.904;4.256;2023-05-12T05:32:49;101777.97;;;18.45;61.90
48517;BME280;34310;51.904;4.256;2023-05-12T05:35:16;101783.19;;;18.45;62.04
48517;BME280;34310;51.904;4.256;2023-05-12T05:37:44;101782.28;;;18.45;61.85
48517;BME280;34310;51.904;4.256;2023-05-12T05:40:11;101775.25;;;18.44;62.15
48517;BME280;34310;51.904;4.256;2023-05-12T05:42:39;101784.00;;;18.44;62.10
48517;BME280;34310;51.904;4.256;2023-05-12T05:45:06;101767.34;;;18.42;62.08
48517;BME280;34310;51.904;4.256;2023-05-12T05:47:34;101777.81;;;18.42;61.88
48517;BME280;34310;51.904;4.256;2023-05-12T05:50:04;101778.69;;;18.43;61.84
48517;BME280;34310;51.904;4.256;2023-05-12T05:52:31;101778.63;;;18.41;61.89
48517;BME280;34310;51.904;4.256;2023-05-12T05:54:59;101782.13;;;18.42;62.22
48517;BME280;34310;51.904;4.256;2023-05-12T05:57:26;101783.03;;;18.42;62.09
48517;BME280;34310;51.904;4.256;2023-05-12T05:59:54;101791.69;;;18.41;62.06
48517;BME280;34310;51.904;4.256;2023-05-12T06:02:21;101799.53;;;18.41;62.14
48517;BME280;34310;51.904;4.256;2023-05-12T06:04:49;101796.03;;;18.41;62.18
48517;BME280;34310;51.904;4.256;2023-05-12T06:07:18;101796.84;;;18.40;61.94
48517;BME280;34310;51.904;4.256;2023-05-12T06:09:48;101799.44;;;18.40;62.06
48517;BME280;34310;51.904;4.256;2023-05-12T06:12:15;101807.22;;;18.38;62.04
48517;BME280;34310;51.904;4.256;2023-05-12T06:14:42;101797.66;;;18.39;62.11
48517;BME280;34310;51.904;4.256;2023-05-12T06:17:10;101801.09;;;18.38;61.94
48517;BME280;34310;51.904;4.256;2023-05-12T06:19:37;101793.16;;;18.36;62.05
48517;BME280;34310;51.904;4.256;2023-05-12T06:22:04;101789.66;;;18.36;62.11
48517;BME280;34310;51.904;4.256;2023-05-12T06:24:32;101811.47;;;18.36;62.01
48517;BME280;34310;51.904;4.256;2023-05-12T06:26:59;101801.00;;;18.36;62.22
48517;BME280;34310;51.904;4.256;2023-05-12T06:29:27;101797.56;;;18.37;62.01
48517;BME280;34310;51.904;4.256;2023-05-12T06:31:54;101806.22;;;18.36;62.12
48517;BME280;34310;51.904;4.256;2023-05-12T06:34:22;101811.38;;;18.35;62.11
48517;BME280;34310;51.904;4.256;2023-05-12T06:36:49;101809.66;;;18.35;62.08
48517;BME280;34310;51.904;4.256;2023-05-12T06:39:16;101807.06;;;18.35;62.08
48517;BME280;34310;51.904;4.256;2023-05-12T06:41:44;101802.63;;;18.34;62.00
48517;BME280;34310;51.904;4.256;2023-05-12T06:44:11;101801.75;;;18.34;62.17
48517;BME280;34310;51.904;4.256;2023-05-12T06:46:39;101801.75;;;18.34;62.17
48517;BME280;34310;51.904;4.256;2023-05-12T06:49:06;101806.97;;;18.34;62.06
48517;BME280;34310;51.904;4.256;2023-05-12T06:51:34;101811.31;;;18.33;62.16
48517;BME280;34310;51.904;4.256;2023-05-12T06:54:02;101820.84;;;18.33;62.20
48517;BME280;34310;51.904;4.256;2023-05-12T06:56:30;101826.09;;;18.33;62.14
48517;BME280;34310;51.904;4.256;2023-05-12T06:58:57;101819.88;;;18.31;62.08
48517;BME280;34310;51.904;4.256;2023-05-12T07:01:27;101817.34;;;18.32;62.30
48517;BME280;34310;51.904;4.256;2023-05-12T07:03:55;101818.97;;;18.30;62.02
48517;BME280;34310;51.904;4.256;2023-05-12T07:06:23;101818.97;;;18.30;62.29
48517;BME280;34310;51.904;4.256;2023-05-12T07:08:54;101824.22;;;18.30;62.19
48517;BME280;34310;51.904;4.256;2023-05-12T07:11:22;101826.91;;;18.32;62.29
48517;BME280;34310;51.904;4.256;2023-05-12T07:13:50;101823.38;;;18.31;62.12
48517;BME280;34310;51.904;4.256;2023-05-12T07:16:18;101832.06;;;18.30;62.15
48517;BME280;34310;51.904;4.256;2023-05-12T07:18:46;101834.66;;;18.30;62.15
48517;BME280;34310;51.904;4.256;2023-05-12T07:21:13;101839.06;;;18.31;62.03
48517;BME280;34310;51.904;4.256;2023-05-12T07:23:41;101835.47;;;18.29;62.14
48517;BME280;34310;51.904;4.256;2023-05-12T07:26:09;101829.44;;;18.30;62.32
48517;BME280;34310;51.904;4.256;2023-05-12T07:28:36;101831.97;;;18.29;62.21
48517;BME280;34310;51.904;4.256;2023-05-12T07:31:06;101839.00;;;18.30;62.44
48517;BME280;34310;51.904;4.256;2023-05-12T07:33:34;101832.88;;;18.29;62.21
48517;BME280;34310;51.904;4.256;2023-05-12T07:36:02;101836.38;;;18.30;62.32
48517;BME280;34310;51.904;4.256;2023-05-12T07:38:31;101834.66;;;18.30;62.25
48517;BME280;34310;51.904;4.256;2023-05-12T07:40:59;101835.47;;;18.29;62.39
48517;BME280;34310;51.904;4.256;2023-05-12T07:43:26;101839.00;;;18.30;62.36
48517;BME280;34310;51.904;4.256;2023-05-12T07:45:54;101842.50;;;18.30;62.47
48517;BME280;34310;51.904;4.256;2023-05-12T07:48:22;101835.47;;;18.29;62.40
48517;BME280;34310;51.904;4.256;2023-05-12T07:50:49;101836.38;;;18.30;62.49
48517;BME280;34310;51.904;4.256;2023-05-12T07:53:16;101838.19;;;18.31;62.57
48517;BME280;34310;51.904;4.256;2023-05-12T07:55:44;101845.13;;;18.30;62.35
48517;BME280;34310;51.904;4.256;2023-05-12T07:58:12;101835.47;;;18.29;62.44
48517;BME280;34310;51.904;4.256;2023-05-12T08:00:39;101839.91;;;18.30;62.59
48517;BME280;34310;51.904;4.256;2023-05-12T08:03:06;101832.06;;;18.30;62.42
48517;BME280;34310;51.904;4.256;2023-05-12T08:05:34;101835.56;;;18.31;62.43
48517;BME280;34310;51.904;4.256;2023-05-12T08:08:01;101844.31;;;18.31;62.46
48517;BME280;34310;51.904;4.256;2023-05-12T08:10:28;101840.78;;;18.31;62.56
48517;BME280;34310;51.904;4.256;2023-05-12T08:12:58;101848.63;;;18.31;62.50
48517;BME280;34310;51.904;4.256;2023-05-12T08:15:25;101851.34;;;18.32;62.54
48517;BME280;34310;51.904;4.256;2023-05-12T08:17:53;101852.16;;;18.31;62.59
48517;BME280;34310;51.904;4.256;2023-05-12T08:20:20;101852.16;;;18.31;62.56
48517;BME280;34310;51.904;4.256;2023-05-12T08:22:48;101853.06;;;18.32;62.55
48517;BME280;34310;51.904;4.256;2023-05-12T08:25:16;101853.94;;;18.32;62.53
48517;BME280;34310;51.904;4.256;2023-05-12T08:27:44;101856.56;;;18.32;62.68
48517;BME280;34310;51.904;4.256;2023-05-12T08:30:12;101861.78;;;18.32;62.61
48517;BME280;34310;51.904;4.256;2023-05-12T08:32:39;101862.69;;;18.33;62.63
48517;BME280;34310;51.904;4.256;2023-05-12T08:35:07;101863.59;;;18.33;62.61
48517;BME280;34310;51.904;4.256;2023-05-12T08:37:34;101867.03;;;18.32;62.57
48517;BME280;34310;51.904;4.256;2023-05-12T08:40:01;101871.44;;;18.33;62.75
48517;BME280;34310;51.904;4.256;2023-05-12T08:42:43;101869.72;;;18.34;62.78
48517;BME280;34310;51.904;4.256;2023-05-12T08:45:10;101874.03;;;18.33;62.62
48517;BME280;34310;51.904;4.256;2023-05-12T08:47:38;101865.38;;;18.34;62.61
48517;BME280;34310;51.904;4.256;2023-05-12T08:50:07;101873.22;;;18.34;62.76
48517;BME280;34310;51.904;4.256;2023-05-12T08:52:36;101870.63;;;18.34;62.51
48517;BME280;34310;51.904;4.256;2023-05-12T08:55:04;101871.50;;;18.35;62.67
48517;BME280;34310;51.904;4.256;2023-05-12T08:57:31;101867.19;;;18.35;62.67
48517;BME280;34310;51.904;4.256;2023-05-12T09:00:02;101870.63;;;18.34;62.77
48517;BME280;34310;51.904;4.256;2023-05-12T09:02:31;101868.09;;;18.36;62.58
48517;BME280;34310;51.904;4.256;2023-05-12T09:05:14;101875.94;;;18.36;62.61
48517;BME280;34310;51.904;4.256;2023-05-12T09:07:42;101874.22;;;18.36;62.83
48517;BME280;34310;51.904;4.256;2023-05-12T09:10:18;101868.97;;;18.36;62.71
48517;BME280;34310;51.904;4.256;2023-05-12T09:13:12;101869.88;;;18.37;62.91
48517;BME280;34310;51.904;4.256;2023-05-12T09:15:43;101868.97;;;18.36;62.68
48517;BME280;34310;51.904;4.256;2023-05-12T09:18:11;101862.94;;;18.37;62.73
48517;BME280;34310;51.904;4.256;2023-05-12T09:20:38;101867.28;;;18.37;62.77
48517;BME280;34310;51.904;4.256;2023-05-12T09:23:19;101874.31;;;18.38;62.92
48517;BME280;34310;51.904;4.256;2023-05-12T09:25:58;101875.19;;;18.38;62.75
48517;BME280;34310;51.904;4.256;2023-05-12T09:28:39;101867.34;;;18.38;62.85
48517;BME280;34310;51.904;4.256;2023-05-12T09:31:24;101869.97;;;18.38;62.83
48517;BME280;34310;51.904;4.256;2023-05-12T09:33:53;101872.66;;;18.40;62.92
48517;BME280;34310;51.904;4.256;2023-05-12T09:36:22;101878.72;;;18.39;62.65
48517;BME280;34310;51.904;4.256;2023-05-12T09:39:04;101870.94;;;18.40;62.71
48517;BME280;34310;51.904;4.256;2023-05-12T09:41:35;101872.66;;;18.40;62.89
48517;BME280;34310;51.904;4.256;2023-05-12T09:44:03;101885.75;;;18.40;62.81
48517;BME280;34310;51.904;4.256;2023-05-12T09:46:30;101872.66;;;18.40;62.87
48517;BME280;34310;51.904;4.256;2023-05-12T09:48:58;101877.09;;;18.41;62.87
48517;BME280;34310;51.904;4.256;2023-05-12T09:51:26;101881.50;;;18.42;63.00
48517;BME280;34310;51.904;4.256;2023-05-12T09:53:54;101887.63;;;18.42;62.82
48517;BME280;34310;51.904;4.256;2023-05-12T09:56:21;101887.63;;;18.42;62.97
48517;BME280;34310;51.904;4.256;2023-05-12T09:58:50;101886.81;;;18.43;62.83
48517;BME280;34310;51.904;4.256;2023-05-12T10:01:20;101876.34;;;18.43;62.85
48517;BME280;34310;51.904;4.256;2023-05-12T10:03:53;101879.88;;;18.44;62.85
48517;BME280;34310;51.904;4.256;2023-05-12T10:06:29;101879.03;;;18.45;62.98
48517;BME280;34310;51.904;4.256;2023-05-12T10:09:10;101882.56;;;18.45;63.05
48517;BME280;34310;51.904;4.256;2023-05-12T10:11:40;101877.34;;;18.45;62.92
48517;BME280;34310;51.904;4.256;2023-05-12T10:14:08;101881.75;;;18.46;63.06
48517;BME280;34310;51.904;4.256;2023-05-12T10:16:37;101886.97;;;18.46;62.81
48517;BME280;34310;51.904;4.256;2023-05-12T10:19:08;101880.03;;;18.47;63.03
48517;BME280;34310;51.904;4.256;2023-05-12T10:21:37;101876.59;;;18.48;62.96
48517;BME280;34310;51.904;4.256;2023-05-12T10:24:05;101876.59;;;18.48;63.03
48517;BME280;34310;51.904;4.256;2023-05-12T10:26:33;101883.63;;;18.49;62.86
48517;BME280;34310;51.904;4.256;2023-05-12T10:29:03;101883.63;;;18.49;63.03
48517;BME280;34310;51.904;4.256;2023-05-12T10:31:32;101883.75;;;18.50;63.01
48517;BME280;34310;51.904;4.256;2023-05-12T10:34:02;101878.50;;;18.50;63.10
48517;BME280;34310;51.904;4.256;2023-05-12T10:36:30;101884.63;;;18.51;63.08
48517;BME280;34310;51.904;4.256;2023-05-12T10:39:04;101876.78;;;18.51;63.13
48517;BME280;34310;51.904;4.256;2023-05-12T10:41:33;101877.69;;;18.51;63.08
48517;BME280;34310;51.904;4.256;2023-05-12T10:44:01;101883.00;;;18.53;62.88
48517;BME280;34310;51.904;4.256;2023-05-12T10:46:29;101889.13;;;18.53;63.23
48517;BME280;34310;51.904;4.256;2023-05-12T10:51:57;101892.72;;;18.55;62.97
48517;BME280;34310;51.904;4.256;2023-05-12T10:54:23;101882.28;;;18.55;63.07
48517;BME280;34310;51.904;4.256;2023-05-12T10:56:51;101894.53;;;18.56;63.14
48517;BME280;34310;51.904;4.256;2023-05-12T10:59:21;101890.19;;;18.57;62.96
48517;BME280;34310;51.904;4.256;2023-05-12T11:02:03;101891.09;;;18.57;62.93
48517;BME280;34310;51.904;4.256;2023-05-12T11:07:09;101889.47;;;18.60;63.00
48517;BME280;34310;51.904;4.256;2023-05-12T11:09:40;101880.72;;;18.59;62.93
48517;BME280;34310;51.904;4.256;2023-05-12T11:12:24;101879.00;;;18.60;63.00
48517;BME280;34310;51.904;4.256;2023-05-12T11:14:53;101871.25;;;18.61;63.09
48517;BME280;34310;51.904;4.256;2023-05-12T11:17:20;101878.31;;;18.62;63.21
48517;BME280;34310;51.904;4.256;2023-05-12T11:19:49;101871.25;;;18.61;63.10
48517;BME280;34310;51.904;4.256;2023-05-12T11:22:19;101878.38;;;18.64;63.15
48517;BME280;34310;51.904;4.256;2023-05-12T11:24:48;101881.00;;;18.64;63.05
48517;BME280;34310;51.904;4.256;2023-05-12T11:27:20;101881.91;;;18.64;62.95
48517;BME280;34310;51.904;4.256;2023-05-12T11:30:00;101871.44;;;18.64;63.08
48517;BME280;34310;51.904;4.256;2023-05-12T11:32:29;101882.88;;;18.66;62.94
48517;BME280;34310;51.904;4.256;2023-05-12T11:35:15;101886.41;;;18.67;63.15
48517;BME280;34310;51.904;4.256;2023-05-12T11:37:43;101879.44;;;18.67;63.20
48517;BME280;34310;51.904;4.256;2023-05-12T11:40:21;101882.97;;;18.68;63.14
48517;BME280;34310;51.904;4.256;2023-05-12T11:42:50;101886.47;;;18.68;63.26
48517;BME280;34310;51.904;4.256;2023-05-12T11:45:24;101884.75;;;18.69;63.13
48517;BME280;34310;51.904;4.256;2023-05-12T11:47:53;101887.47;;;18.70;63.16
48517;BME280;34310;51.904;4.256;2023-05-12T11:50:31;101884.84;;;18.70;63.06
48517;BME280;34310;51.904;4.256;2023-05-12T11:52:58;101879.63;;;18.70;63.16
48517;BME280;34310;51.904;4.256;2023-05-12T11:55:25;101882.31;;;18.72;63.28
48517;BME280;34310;51.904;4.256;2023-05-12T11:57:58;101899.88;;;18.74;63.21
48517;BME280;34310;51.904;4.256;2023-05-12T12:00:33;101883.22;;;18.72;63.34
48517;BME280;34310;51.904;4.256;2023-05-12T12:03:08;101886.81;;;18.74;63.25
48517;BME280;34310;51.904;4.256;2023-05-12T12:05:37;101906.03;;;18.75;63.13
48517;BME280;34310;51.904;4.256;2023-05-12T12:08:06;101895.63;;;18.76;63.11
48517;BME280;34310;51.904;4.256;2023-05-12T12:10:35;101900.06;;;18.77;63.30
48517;BME280;34310;51.904;4.256;2023-05-12T12:13:02;101898.34;;;18.78;63.37
48517;BME280;34310;51.904;4.256;2023-05-12T12:15:30;101891.38;;;18.78;63.22
48517;BME280;34310;51.904;4.256;2023-05-12T12:17:57;101887.06;;;18.79;63.09
48517;BME280;34310;51.904;4.256;2023-05-12T12:20:25;101903.75;;;18.81;63.14
48517;BME280;34310;51.904;4.256;2023-05-12T12:22:53;101912.50;;;18.81;63.16
48517;BME280;34310;51.904;4.256;2023-05-12T12:25:21;101914.31;;;18.82;63.12
48517;BME280;34310;51.904;4.256;2023-05-12T12:27:48;101917.84;;;18.83;63.25
48517;BME280;34310;51.904;4.256;2023-05-12T12:30:16;101927.47;;;18.84;63.27
48517;BME280;34310;51.904;4.256;2023-05-12T12:32:43;101933.59;;;18.84;63.10
48517;BME280;34310;51.904;4.256;2023-05-12T12:35:12;101916.19;;;18.85;63.21
48517;BME280;34310;51.904;4.256;2023-05-12T12:37:40;101918.00;;;18.86;63.25
48517;BME280;34310;51.904;4.256;2023-05-12T12:40:08;101927.66;;;18.87;63.35
48517;BME280;34310;51.904;4.256;2023-05-12T12:42:37;101928.53;;;18.87;63.44
48517;BME280;34310;51.904;4.256;2023-05-12T12:45:06;101921.66;;;18.90;63.41
48517;BME280;34310;51.904;4.256;2023-05-12T12:47:35;101926.09;;;18.91;63.36
48517;BME280;34310;51.904;4.256;2023-05-12T12:50:04;101929.59;;;18.91;63.22
48517;BME280;34310;51.904;4.256;2023-05-12T12:52:31;101928.78;;;18.92;63.36
48517;BME280;34310;51.904;4.256;2023-05-12T12:54:59;101936.72;;;18.94;63.34
48517;BME280;34310;51.904;4.256;2023-05-12T12:57:26;101939.41;;;18.95;63.20
48517;BME280;34310;51.904;4.256;2023-05-12T12:59:54;101934.19;;;18.95;63.25
48517;BME280;34310;51.904;4.256;2023-05-12T13:02:21;101928.13;;;18.96;63.22
48517;BME280;34310;51.904;4.256;2023-05-12T13:04:48;101937.78;;;18.97;63.27